sensor_id;sensor_type;location;lat;lon;timestamp;P1;durP1;ratioP1;P2;durP2;ratioP2
31754;SDS011;18325;52.018;4.726;2023-07-31T00:01:55;15.67;;;4.03;;
31754;SDS011;18325;52.018;4.726;2023-07-31T00:04:22;22.80;;;5.07;;
31754;SDS011;18325;52.018;4.726;2023-07-31T00:06:49;17.00;;;5.37;;
31754;SDS011;18325;52.018;4.726;2023-07-31T00:09:15;14.37;;;4.03;;
31754;SDS011;18325;52.018;4.726;2023-07-31T00:11:43;21.07;;;5.23;;
31754;SDS011;18325;52.018;4.726;2023-07-31T00:14:15;19.70;;;4.70;;
31754;SDS011;18325;52.018;4.726;2023-07-31T00:16:41;16.67;;;3.40;;
31754;SDS011;18325;52.018;4.726;2023-07-31T00:25:52;14.77;;;3.87;;
31754;SDS011;18325;52.018;4.726;2023-07-31T00:28:20;12.60;;;3.77;;
31754;SDS011;18325;52.018;4.726;2023-07-31T00:30:46;13.40;;;4.20;;
31754;SDS011;18325;52.018;4.726;2023-07-31T00:33:13;14.33;;;4.77;;
31754;SDS011;18325;52.018;4.726;2023-07-31T00:35:52;20.63;;;4.97;;
31754;SDS011;18325;52.018;4.726;2023-07-31T00:38:18;16.93;;;4.97;;
31754;SDS011;18325;52.018;4.726;2023-07-31T00:40:45;16.93;;;4.87;;
31754;SDS011;18325;52.018;4.726;2023-07-31T00:43:12;16.80;;;4.83;;
31754;SDS011;18325;52.018;4.726;2023-07-31T00:45:40;16.97;;;4.60;;
31754;SDS011;18325;52.018;4.726;2023-07-31T00:48:06;16.87;;;4.73;;
31754;SDS011;18325;52.018;4.726;2023-07-31T00:50:50;12.93;;;4.33;;
31754;SDS011;18325;52.018;4.726;2023-07-31T00:53:17;22.17;;;5.13;;
31754;SDS011;18325;52.018;4.726;2023-07-31T00:59:18;11.43;;;4.03;;
31754;SDS011;18325;52.018;4.726;2023-07-31T01:04:31;18.57;;;5.53;;
31754;SDS011;18325;52.018;4.726;2023-07-31T01:07:02;16.10;;;5.67;;
31754;SDS011;18325;52.018;4.726;2023-07-31T01:09:34;21.50;;;5.33;;
31754;SDS011;18325;52.018;4.726;2023-07-31T01:12:03;20.93;;;4.77;;
31754;SDS011;18325;52.018;4.726;2023-07-31T01:14:30;21.43;;;5.57;;
31754;SDS011;18325;52.018;4.726;2023-07-31T01:17:00;18.80;;;4.93;;
31754;SDS011;18325;52.018;4.726;2023-07-31T01:19:28;15.20;;;4.20;;
31754;SDS011;18325;52.018;4.726;2023-07-31T01:22:04;9.77;;;3.50;;
31754;SDS011;18325;52.018;4.726;2023-07-31T01:24:43;9.77;;;3.20;;
31754;SDS011;18325;52.018;4.726;2023-07-31T01:27:34;6.70;;;2.70;;
31754;SDS011;18325;52.018;4.726;2023-07-31T01:30:03;9.90;;;3.40;;
31754;SDS011;18325;52.018;4.726;2023-07-31T01:32:39;14.17;;;3.63;;
31754;SDS011;18325;52.018;4.726;2023-07-31T01:35:07;11.50;;;4.27;;
31754;SDS011;18325;52.018;4.726;2023-07-31T01:37:34;10.50;;;3.37;;
31754;SDS011;18325;52.018;4.726;2023-07-31T01:40:00;13.60;;;3.93;;
31754;SDS011;18325;52.018;4.726;2023-07-31T01:43:09;14.47;;;4.03;;
31754;SDS011;18325;52.018;4.726;2023-07-31T01:45:22;15.83;;;4.43;;
31754;SDS011;18325;52.018;4.726;2023-07-31T01:47:48;17.97;;;5.13;;
31754;SDS011;18325;52.018;4.726;2023-07-31T01:50:16;11.30;;;4.53;;
31754;SDS011;18325;52.018;4.726;2023-07-31T01:52:42;13.00;;;4.07;;
31754;SDS011;18325;52.018;4.726;2023-07-31T01:55:09;18.23;;;4.77;;
31754;SDS011;18325;52.018;4.726;2023-07-31T02:00:34;18.23;;;4.93;;
31754;SDS011;18325;52.018;4.726;2023-07-31T02:03:01;13.70;;;3.63;;
31754;SDS011;18325;52.018;4.726;2023-07-31T02:05:27;13.53;;;4.90;;
31754;SDS011;18325;52.018;4.726;2023-07-31T02:07:54;19.70;;;4.77;;
31754;SDS011;18325;52.018;4.726;2023-07-31T02:10:20;15.27;;;4.93;;
31754;SDS011;18325;52.018;4.726;2023-07-31T02:12:50;15.83;;;4.30;;
31754;SDS011;18325;52.018;4.726;2023-07-31T02:15:18;19.37;;;5.07;;
31754;SDS011;18325;52.018;4.726;2023-07-31T02:17:44;18.13;;;4.50;;
31754;SDS011;18325;52.018;4.726;2023-07-31T02:20:11;17.03;;;4.20;;
31754;SDS011;18325;52.018;4.726;2023-07-31T02:22:37;18.17;;;5.60;;
31754;SDS011;18325;52.018;4.726;2023-07-31T02:25:04;16.43;;;4.87;;
31754;SDS011;18325;52.018;4.726;2023-07-31T02:27:31;16.67;;;5.50;;
31754;SDS011;18325;52.018;4.726;2023-07-31T02:29:58;20.03;;;5.43;;
31754;SDS011;18325;52.018;4.726;2023-07-31T02:32:26;20.37;;;4.67;;
31754;SDS011;18325;52.018;4.726;2023-07-31T02:34:53;17.00;;;5.40;;
31754;SDS011;18325;52.018;4.726;2023-07-31T02:37:19;15.65;;;5.07;;
31754;SDS011;18325;52.018;4.726;2023-07-31T02:39:46;24.13;;;4.63;;
31754;SDS011;18325;52.018;4.726;2023-07-31T02:42:12;19.73;;;4.73;;
31754;SDS011;18325;52.018;4.726;2023-07-31T02:44:39;17.77;;;5.03;;
31754;SDS011;18325;52.018;4.726;2023-07-31T02:47:05;14.77;;;5.13;;
31754;SDS011;18325;52.018;4.726;2023-07-31T02:49:33;11.33;;;4.33;;
31754;SDS011;18325;52.018;4.726;2023-07-31T02:52:00;17.70;;;5.27;;
31754;SDS011;18325;52.018;4.726;2023-07-31T02:54:27;12.70;;;4.43;;
31754;SDS011;18325;52.018;4.726;2023-07-31T02:56:53;11.47;;;3.80;;
31754;SDS011;18325;52.018;4.726;2023-07-31T02:59:20;19.77;;;3.83;;
31754;SDS011;18325;52.018;4.726;2023-07-31T03:01:46;11.80;;;4.30;;
31754;SDS011;18325;52.018;4.726;2023-07-31T03:04:13;9.63;;;3.77;;
31754;SDS011;18325;52.018;4.726;2023-07-31T03:06:41;12.10;;;4.13;;
31754;SDS011;18325;52.018;4.726;2023-07-31T03:09:07;13.67;;;4.17;;
31754;SDS011;18325;52.018;4.726;2023-07-31T03:11:34;17.40;;;5.10;;
31754;SDS011;18325;52.018;4.726;2023-07-31T03:14:00;20.13;;;4.63;;
31754;SDS011;18325;52.018;4.726;2023-07-31T03:16:39;14.27;;;4.17;;
31754;SDS011;18325;52.018;4.726;2023-07-31T03:19:08;12.50;;;4.43;;
31754;SDS011;18325;52.018;4.726;2023-07-31T03:21:35;11.63;;;3.90;;
31754;SDS011;18325;52.018;4.726;2023-07-31T03:24:04;17.40;;;4.50;;
31754;SDS011;18325;52.018;4.726;2023-07-31T03:26:30;12.27;;;4.27;;
31754;SDS011;18325;52.018;4.726;2023-07-31T03:28:57;15.53;;;4.03;;
31754;SDS011;18325;52.018;4.726;2023-07-31T03:31:24;13.90;;;4.17;;
31754;SDS011;18325;52.018;4.726;2023-07-31T03:33:50;11.93;;;4.27;;
31754;SDS011;18325;52.018;4.726;2023-07-31T03:36:17;14.37;;;4.30;;
31754;SDS011;18325;52.018;4.726;2023-07-31T03:41:33;12.10;;;4.27;;
31754;SDS011;18325;52.018;4.726;2023-07-31T03:44:00;9.60;;;3.53;;
31754;SDS011;18325;52.018;4.726;2023-07-31T03:46:27;23.30;;;4.70;;
31754;SDS011;18325;52.018;4.726;2023-07-31T03:48:53;12.43;;;4.10;;
31754;SDS011;18325;52.018;4.726;2023-07-31T03:51:32;14.37;;;4.33;;
31754;SDS011;18325;52.018;4.726;2023-07-31T03:53:59;14.73;;;4.93;;
31754;SDS011;18325;52.018;4.726;2023-07-31T03:56:27;14.33;;;4.63;;
31754;SDS011;18325;52.018;4.726;2023-07-31T03:59:00;9.77;;;4.00;;
31754;SDS011;18325;52.018;4.726;2023-07-31T04:01:26;16.07;;;4.67;;
31754;SDS011;18325;52.018;4.726;2023-07-31T04:03:59;12.90;;;4.07;;
31754;SDS011;18325;52.018;4.726;2023-07-31T04:06:26;11.83;;;4.43;;
31754;SDS011;18325;52.018;4.726;2023-07-31T04:08:52;11.60;;;4.60;;
31754;SDS011;18325;52.018;4.726;2023-07-31T04:11:29;11.70;;;4.07;;
31754;SDS011;18325;52.018;4.726;2023-07-31T04:13:56;12.67;;;3.93;;
31754;SDS011;18325;52.018;4.726;2023-07-31T04:16:23;13.00;;;4.00;;
31754;SDS011;18325;52.018;4.726;2023-07-31T04:18:49;12.00;;;5.00;;
31754;SDS011;18325;52.018;4.726;2023-07-31T04:21:16;10.73;;;3.77;;
31754;SDS011;18325;52.018;4.726;2023-07-31T04:23:45;9.87;;;3.90;;
31754;SDS011;18325;52.018;4.726;2023-07-31T04:26:31;11.93;;;3.70;;
31754;SDS011;18325;52.018;4.726;2023-07-31T04:28:57;12.47;;;4.23;;
31754;SDS011;18325;52.018;4.726;2023-07-31T04:31:24;11.13;;;4.07;;
31754;SDS011;18325;52.018;4.726;2023-07-31T04:33:56;8.07;;;3.93;;
31754;SDS011;18325;52.018;4.726;2023-07-31T04:36:37;9.27;;;3.67;;
31754;SDS011;18325;52.018;4.726;2023-07-31T04:39:03;9.53;;;3.53;;
31754;SDS011;18325;52.018;4.726;2023-07-31T04:41:33;11.20;;;3.33;;
31754;SDS011;18325;52.018;4.726;2023-07-31T04:47:35;5.93;;;2.77;;
31754;SDS011;18325;52.018;4.726;2023-07-31T04:50:02;8.70;;;3.63;;
31754;SDS011;18325;52.018;4.726;2023-07-31T04:52:28;6.50;;;2.50;;
31754;SDS011;18325;52.018;4.726;2023-07-31T04:54:55;5.93;;;2.83;;
31754;SDS011;18325;52.018;4.726;2023-07-31T04:57:24;7.13;;;3.40;;
31754;SDS011;18325;52.018;4.726;2023-07-31T04:59:53;6.80;;;3.13;;
31754;SDS011;18325;52.018;4.726;2023-07-31T05:02:20;8.93;;;2.80;;
31754;SDS011;18325;52.018;4.726;2023-07-31T05:05:00;4.87;;;2.87;;
31754;SDS011;18325;52.018;4.726;2023-07-31T05:07:26;8.13;;;3.13;;
31754;SDS011;18325;52.018;4.726;2023-07-31T05:09:53;12.07;;;3.33;;
31754;SDS011;18325;52.018;4.726;2023-07-31T05:12:36;7.40;;;2.57;;
31754;SDS011;18325;52.018;4.726;2023-07-31T05:15:03;13.50;;;3.33;;
31754;SDS011;18325;52.018;4.726;2023-07-31T05:17:31;8.33;;;3.17;;
31754;SDS011;18325;52.018;4.726;2023-07-31T05:19:57;6.00;;;2.83;;
31754;SDS011;18325;52.018;4.726;2023-07-31T05:22:24;7.70;;;3.60;;
31754;SDS011;18325;52.018;4.726;2023-07-31T05:24:51;6.33;;;2.73;;
31754;SDS011;18325;52.018;4.726;2023-07-31T05:27:19;8.90;;;2.90;;
31754;SDS011;18325;52.018;4.726;2023-07-31T05:29:48;5.47;;;2.83;;
31754;SDS011;18325;52.018;4.726;2023-07-31T05:32:15;6.17;;;3.00;;
31754;SDS011;18325;52.018;4.726;2023-07-31T05:34:41;5.43;;;2.50;;
31754;SDS011;18325;52.018;4.726;2023-07-31T05:37:09;6.40;;;2.73;;
31754;SDS011;18325;52.018;4.726;2023-07-31T05:39:38;6.77;;;2.20;;
31754;SDS011;18325;52.018;4.726;2023-07-31T05:42:08;5.87;;;2.03;;
31754;SDS011;18325;52.018;4.726;2023-07-31T05:45:01;7.67;;;2.13;;
31754;SDS011;18325;52.018;4.726;2023-07-31T05:47:27;6.50;;;3.13;;
31754;SDS011;18325;52.018;4.726;2023-07-31T05:52:26;5.17;;;2.43;;
31754;SDS011;18325;52.018;4.726;2023-07-31T05:53:29;4.50;;;2.07;;
31754;SDS011;18325;52.018;4.726;2023-07-31T05:55:56;4.87;;;2.00;;
31754;SDS011;18325;52.018;4.726;2023-07-31T06:01:37;4.60;;;2.00;;
31754;SDS011;18325;52.018;4.726;2023-07-31T06:04:04;4.17;;;2.27;;
31754;SDS011;18325;52.018;4.726;2023-07-31T06:06:30;3.37;;;2.07;;
31754;SDS011;18325;52.018;4.726;2023-07-31T06:08:57;4.37;;;2.40;;
31754;SDS011;18325;52.018;4.726;2023-07-31T06:14:46;4.10;;;2.00;;
31754;SDS011;18325;52.018;4.726;2023-07-31T06:17:14;3.83;;;1.93;;
31754;SDS011;18325;52.018;4.726;2023-07-31T06:19:40;4.63;;;2.13;;
31754;SDS011;18325;52.018;4.726;2023-07-31T06:22:07;3.83;;;1.93;;
31754;SDS011;18325;52.018;4.726;2023-07-31T06:24:37;4.40;;;2.27;;
31754;SDS011;18325;52.018;4.726;2023-07-31T06:27:04;5.03;;;1.93;;
31754;SDS011;18325;52.018;4.726;2023-07-31T06:32:20;6.20;;;2.13;;
31754;SDS011;18325;52.018;4.726;2023-07-31T06:34:47;3.80;;;2.20;;
31754;SDS011;18325;52.018;4.726;2023-07-31T06:40:09;8.10;;;2.30;;
31754;SDS011;18325;52.018;4.726;2023-07-31T06:42:36;3.57;;;1.97;;
31754;SDS011;18325;52.018;4.726;2023-07-31T06:45:03;3.60;;;2.00;;
31754;SDS011;18325;52.018;4.726;2023-07-31T06:47:37;3.90;;;1.90;;
31754;SDS011;18325;52.018;4.726;2023-07-31T06:50:07;3.70;;;2.17;;
31754;SDS011;18325;52.018;4.726;2023-07-31T06:52:34;4.90;;;2.13;;
31754;SDS011;18325;52.018;4.726;2023-07-31T06:55:01;2.53;;;1.70;;
31754;SDS011;18325;52.018;4.726;2023-07-31T06:57:29;4.50;;;2.70;;
31754;SDS011;18325;52.018;4.726;2023-07-31T07:00:01;5.03;;;1.67;;
31754;SDS011;18325;52.018;4.726;2023-07-31T07:05:29;1.63;;;1.53;;
31754;SDS011;18325;52.018;4.726;2023-07-31T07:07:56;2.83;;;1.60;;
31754;SDS011;18325;52.018;4.726;2023-07-31T07:10:23;3.03;;;1.53;;
31754;SDS011;18325;52.018;4.726;2023-07-31T07:12:50;4.90;;;1.70;;
31754;SDS011;18325;52.018;4.726;2023-07-31T07:15:16;3.20;;;1.30;;
31754;SDS011;18325;52.018;4.726;2023-07-31T07:17:43;2.33;;;1.60;;
31754;SDS011;18325;52.018;4.726;2023-07-31T07:20:11;2.57;;;1.50;;
31754;SDS011;18325;52.018;4.726;2023-07-31T07:22:39;3.07;;;1.70;;
31754;SDS011;18325;52.018;4.726;2023-07-31T07:28:32;1.30;;;1.20;;
31754;SDS011;18325;52.018;4.726;2023-07-31T07:30:58;1.60;;;1.40;;
31754;SDS011;18325;52.018;4.726;2023-07-31T07:33:27;2.27;;;1.17;;
31754;SDS011;18325;52.018;4.726;2023-07-31T07:35:55;2.23;;;1.20;;
31754;SDS011;18325;52.018;4.726;2023-07-31T07:38:21;1.40;;;1.00;;
31754;SDS011;18325;52.018;4.726;2023-07-31T07:40:48;3.00;;;1.20;;
31754;SDS011;18325;52.018;4.726;2023-07-31T07:43:18;2.77;;;1.23;;
31754;SDS011;18325;52.018;4.726;2023-07-31T07:48:36;1.10;;;1.00;;
31754;SDS011;18325;52.018;4.726;2023-07-31T07:51:04;1.07;;;0.80;;
31754;SDS011;18325;52.018;4.726;2023-07-31T07:53:31;1.83;;;1.20;;
31754;SDS011;18325;52.018;4.726;2023-07-31T07:55:58;3.17;;;1.27;;
31754;SDS011;18325;52.018;4.726;2023-07-31T07:58:24;1.37;;;0.90;;
31754;SDS011;18325;52.018;4.726;2023-07-31T08:00:51;1.73;;;1.17;;
31754;SDS011;18325;52.018;4.726;2023-07-31T08:21:00;1.20;;;0.80;;
31754;SDS011;18325;52.018;4.726;2023-07-31T08:23:27;0.95;;;0.68;;
31754;SDS011;18325;52.018;4.726;2023-07-31T08:25:54;0.93;;;0.60;;
31754;SDS011;18325;52.018;4.726;2023-07-31T08:34:06;0.70;;;0.70;;
31754;SDS011;18325;52.018;4.726;2023-07-31T08:36:34;1.53;;;0.70;;
31754;SDS011;18325;52.018;4.726;2023-07-31T08:42:24;2.00;;;0.70;;
31754;SDS011;18325;52.018;4.726;2023-07-31T08:44:51;0.73;;;0.73;;
31754;SDS011;18325;52.018;4.726;2023-07-31T08:47:23;1.10;;;0.90;;
31754;SDS011;18325;52.018;4.726;2023-07-31T08:49:50;0.88;;;0.50;;
31754;SDS011;18325;52.018;4.726;2023-07-31T08:52:19;1.00;;;0.75;;
31754;SDS011;18325;52.018;4.726;2023-07-31T08:54:46;0.67;;;0.57;;
31754;SDS011;18325;52.018;4.726;2023-07-31T08:57:12;1.70;;;0.50;;
31754;SDS011;18325;52.018;4.726;2023-07-31T08:59:40;0.95;;;0.60;;
31754;SDS011;18325;52.018;4.726;2023-07-31T09:02:07;0.52;;;0.50;;
31754;SDS011;18325;52.018;4.726;2023-07-31T09:04:34;1.88;;;0.80;;
31754;SDS011;18325;52.018;4.726;2023-07-31T09:07:01;2.13;;;0.82;;
31754;SDS011;18325;52.018;4.726;2023-07-31T09:12:28;0.50;;;0.45;;
31754;SDS011;18325;52.018;4.726;2023-07-31T09:14:55;1.13;;;0.82;;
31754;SDS011;18325;52.018;4.726;2023-07-31T09:17:31;0.77;;;0.70;;
31754;SDS011;18325;52.018;4.726;2023-07-31T09:19:59;1.45;;;0.60;;
31754;SDS011;18325;52.018;4.726;2023-07-31T09:22:39;1.10;;;0.80;;
31754;SDS011;18325;52.018;4.726;2023-07-31T09:25:15;1.13;;;1.02;;
31754;SDS011;18325;52.018;4.726;2023-07-31T09:27:45;0.82;;;0.80;;
31754;SDS011;18325;52.018;4.726;2023-07-31T09:30:12;1.30;;;1.20;;
31754;SDS011;18325;52.018;4.726;2023-07-31T09:32:52;1.30;;;1.20;;
31754;SDS011;18325;52.018;4.726;2023-07-31T09:35:40;2.53;;;1.45;;
31754;SDS011;18325;52.018;4.726;2023-07-31T09:38:08;2.85;;;1.38;;
31754;SDS011;18325;52.018;4.726;2023-07-31T09:40:45;2.55;;;1.20;;
31754;SDS011;18325;52.018;4.726;2023-07-31T09:43:30;1.63;;;1.40;;
31754;SDS011;18325;52.018;4.726;2023-07-31T09:45:57;2.00;;;1.42;;
31754;SDS011;18325;52.018;4.726;2023-07-31T09:48:24;3.90;;;1.75;;
31754;SDS011;18325;52.018;4.726;2023-07-31T09:50:52;2.13;;;1.55;;
31754;SDS011;18325;52.018;4.726;2023-07-31T09:53:19;3.08;;;1.75;;
31754;SDS011;18325;52.018;4.726;2023-07-31T09:55:55;2.33;;;1.52;;
31754;SDS011;18325;52.018;4.726;2023-07-31T09:58:38;2.25;;;1.75;;
31754;SDS011;18325;52.018;4.726;2023-07-31T10:01:04;2.70;;;1.60;;
31754;SDS011;18325;52.018;4.726;2023-07-31T10:03:31;2.88;;;1.88;;
31754;SDS011;18325;52.018;4.726;2023-07-31T10:06:07;2.00;;;1.77;;
31754;SDS011;18325;52.018;4.726;2023-07-31T10:08:35;2.17;;;1.45;;
31754;SDS011;18325;52.018;4.726;2023-07-31T10:11:05;2.55;;;1.80;;
31754;SDS011;18325;52.018;4.726;2023-07-31T10:13:33;1.50;;;1.33;;
31754;SDS011;18325;52.018;4.726;2023-07-31T10:16:00;2.63;;;2.03;;
31754;SDS011;18325;52.018;4.726;2023-07-31T10:18:26;2.83;;;1.60;;
31754;SDS011;18325;52.018;4.726;2023-07-31T10:20:54;5.53;;;2.40;;
31754;SDS011;18325;52.018;4.726;2023-07-31T10:23:21;2.20;;;1.75;;
31754;SDS011;18325;52.018;4.726;2023-07-31T10:25:48;2.55;;;1.88;;
31754;SDS011;18325;52.018;4.726;2023-07-31T10:28:17;2.28;;;1.60;;
31754;SDS011;18325;52.018;4.726;2023-07-31T10:30:44;1.92;;;1.73;;
31754;SDS011;18325;52.018;4.726;2023-07-31T10:33:11;2.63;;;1.98;;
31754;SDS011;18325;52.018;4.726;2023-07-31T10:35:38;1.80;;;1.55;;
31754;SDS011;18325;52.018;4.726;2023-07-31T10:41:07;3.53;;;2.00;;
31754;SDS011;18325;52.018;4.726;2023-07-31T10:43:35;5.30;;;2.28;;
31754;SDS011;18325;52.018;4.726;2023-07-31T10:46:05;7.03;;;2.20;;
31754;SDS011;18325;52.018;4.726;2023-07-31T10:51:32;7.65;;;3.28;;
31754;SDS011;18325;52.018;4.726;2023-07-31T10:54:10;4.68;;;2.90;;
31754;SDS011;18325;52.018;4.726;2023-07-31T10:56:37;5.22;;;2.17;;
31754;SDS011;18325;52.018;4.726;2023-07-31T10:59:05;3.72;;;2.30;;
31754;SDS011;18325;52.018;4.726;2023-07-31T11:04:17;12.52;;;3.40;;
31754;SDS011;18325;52.018;4.726;2023-07-31T11:06:55;6.72;;;2.67;;
31754;SDS011;18325;52.018;4.726;2023-07-31T11:09:26;3.35;;;2.08;;
31754;SDS011;18325;52.018;4.726;2023-07-31T11:11:54;9.68;;;3.08;;
31754;SDS011;18325;52.018;4.726;2023-07-31T11:14:23;3.00;;;1.90;;
31754;SDS011;18325;52.018;4.726;2023-07-31T11:20:17;6.30;;;2.38;;
31754;SDS011;18325;52.018;4.726;2023-07-31T11:22:44;6.45;;;2.65;;
31754;SDS011;18325;52.018;4.726;2023-07-31T11:25:10;5.07;;;2.33;;
31754;SDS011;18325;52.018;4.726;2023-07-31T11:30:29;6.65;;;3.20;;
31754;SDS011;18325;52.018;4.726;2023-07-31T11:32:56;5.38;;;3.42;;
31754;SDS011;18325;52.018;4.726;2023-07-31T11:35:22;7.78;;;3.78;;
31754;SDS011;18325;52.018;4.726;2023-07-31T11:40:52;6.25;;;4.10;;
31754;SDS011;18325;52.018;4.726;2023-07-31T11:43:33;7.63;;;3.60;;
31754;SDS011;18325;52.018;4.726;2023-07-31T11:46:03;7.10;;;4.10;;
31754;SDS011;18325;52.018;4.726;2023-07-31T11:48:32;6.30;;;3.85;;
31754;SDS011;18325;52.018;4.726;2023-07-31T11:51:01;6.53;;;3.50;;
31754;SDS011;18325;52.018;4.726;2023-07-31T11:53:35;5.93;;;3.88;;
31754;SDS011;18325;52.018;4.726;2023-07-31T11:56:05;6.78;;;3.75;;
31754;SDS011;18325;52.018;4.726;2023-07-31T11:58:47;3.90;;;3.50;;
31754;SDS011;18325;52.018;4.726;2023-07-31T12:01:16;6.22;;;4.20;;
31754;SDS011;18325;52.018;4.726;2023-07-31T12:03:45;10.05;;;4.07;;
31754;SDS011;18325;52.018;4.726;2023-07-31T12:06:12;13.00;;;4.65;;
31754;SDS011;18325;52.018;4.726;2023-07-31T12:08:38;6.55;;;3.88;;
31754;SDS011;18325;52.018;4.726;2023-07-31T12:11:06;4.18;;;3.15;;
31754;SDS011;18325;52.018;4.726;2023-07-31T12:13:37;5.00;;;3.60;;
31754;SDS011;18325;52.018;4.726;2023-07-31T12:16:04;9.50;;;3.60;;
31754;SDS011;18325;52.018;4.726;2023-07-31T12:21:48;6.57;;;3.15;;
31754;SDS011;18325;52.018;4.726;2023-07-31T12:27:22;8.15;;;3.88;;
31754;SDS011;18325;52.018;4.726;2023-07-31T12:29:50;5.72;;;3.63;;
31754;SDS011;18325;52.018;4.726;2023-07-31T12:32:21;5.38;;;2.90;;
31754;SDS011;18325;52.018;4.726;2023-07-31T12:34:50;3.40;;;2.55;;
31754;SDS011;18325;52.018;4.726;2023-07-31T12:37:17;8.05;;;2.65;;
31754;SDS011;18325;52.018;4.726;2023-07-31T12:39:43;5.53;;;2.95;;
31754;SDS011;18325;52.018;4.726;2023-07-31T12:42:10;7.38;;;2.83;;
31754;SDS011;18325;52.018;4.726;2023-07-31T12:44:36;2.97;;;2.70;;
31754;SDS011;18325;52.018;4.726;2023-07-31T12:47:03;3.92;;;2.80;;
31754;SDS011;18325;52.018;4.726;2023-07-31T12:49:30;4.10;;;3.25;;
31754;SDS011;18325;52.018;4.726;2023-07-31T12:54:40;3.47;;;2.85;;
31754;SDS011;18325;52.018;4.726;2023-07-31T12:57:06;3.40;;;3.05;;
31754;SDS011;18325;52.018;4.726;2023-07-31T12:59:33;3.85;;;2.65;;
31754;SDS011;18325;52.018;4.726;2023-07-31T13:01:59;5.65;;;2.88;;
31754;SDS011;18325;52.018;4.726;2023-07-31T13:04:26;5.55;;;3.20;;
31754;SDS011;18325;52.018;4.726;2023-07-31T13:06:53;6.07;;;3.15;;
31754;SDS011;18325;52.018;4.726;2023-07-31T13:09:21;5.30;;;2.40;;
31754;SDS011;18325;52.018;4.726;2023-07-31T13:11:47;4.85;;;2.40;;
31754;SDS011;18325;52.018;4.726;2023-07-31T13:14:14;4.70;;;3.05;;
31754;SDS011;18325;52.018;4.726;2023-07-31T13:16:42;2.30;;;2.03;;
31754;SDS011;18325;52.018;4.726;2023-07-31T13:19:08;3.17;;;1.83;;
31754;SDS011;18325;52.018;4.726;2023-07-31T13:21:35;3.35;;;1.63;;
31754;SDS011;18325;52.018;4.726;2023-07-31T13:24:02;2.78;;;1.40;;
31754;SDS011;18325;52.018;4.726;2023-07-31T13:26:30;1.80;;;1.65;;
31754;SDS011;18325;52.018;4.726;2023-07-31T13:28:57;2.35;;;1.52;;
31754;SDS011;18325;52.018;4.726;2023-07-31T13:31:23;4.15;;;1.50;;
31754;SDS011;18325;52.018;4.726;2023-07-31T13:33:50;2.03;;;1.20;;
31754;SDS011;18325;52.018;4.726;2023-07-31T13:36:16;2.47;;;1.33;;
31754;SDS011;18325;52.018;4.726;2023-07-31T13:38:57;1.40;;;1.20;;
31754;SDS011;18325;52.018;4.726;2023-07-31T13:41:23;1.58;;;1.17;;
31754;SDS011;18325;52.018;4.726;2023-07-31T13:43:51;1.42;;;1.15;;
31754;SDS011;18325;52.018;4.726;2023-07-31T13:46:18;2.53;;;1.10;;
31754;SDS011;18325;52.018;4.726;2023-07-31T13:48:44;1.65;;;1.00;;
31754;SDS011;18325;52.018;4.726;2023-07-31T13:51:11;5.50;;;1.70;;
31754;SDS011;18325;52.018;4.726;2023-07-31T13:53:37;1.15;;;1.10;;
31754;SDS011;18325;52.018;4.726;2023-07-31T13:56:04;2.20;;;1.15;;
31754;SDS011;18325;52.018;4.726;2023-07-31T13:58:32;1.35;;;1.25;;
31754;SDS011;18325;52.018;4.726;2023-07-31T14:01:00;1.77;;;1.20;;
31754;SDS011;18325;52.018;4.726;2023-07-31T14:03:28;0.98;;;0.95;;
31754;SDS011;18325;52.018;4.726;2023-07-31T14:05:54;1.95;;;1.20;;
31754;SDS011;18325;52.018;4.726;2023-07-31T14:08:21;1.92;;;1.20;;
31754;SDS011;18325;52.018;4.726;2023-07-31T14:10:49;1.77;;;1.20;;
31754;SDS011;18325;52.018;4.726;2023-07-31T14:13:16;2.60;;;1.40;;
31754;SDS011;18325;52.018;4.726;2023-07-31T14:15:43;1.42;;;1.10;;
31754;SDS011;18325;52.018;4.726;2023-07-31T14:18:11;2.67;;;1.27;;
31754;SDS011;18325;52.018;4.726;2023-07-31T14:20:38;2.70;;;1.38;;
31754;SDS011;18325;52.018;4.726;2023-07-31T14:23:08;1.10;;;0.98;;
31754;SDS011;18325;52.018;4.726;2023-07-31T14:25:34;1.10;;;1.10;;
31754;SDS011;18325;52.018;4.726;2023-07-31T14:28:01;1.58;;;1.02;;
31754;SDS011;18325;52.018;4.726;2023-07-31T14:30:28;1.52;;;1.13;;
31754;SDS011;18325;52.018;4.726;2023-07-31T14:32:54;1.95;;;1.30;;
31754;SDS011;18325;52.018;4.726;2023-07-31T14:35:23;1.52;;;1.27;;
31754;SDS011;18325;52.018;4.726;2023-07-31T14:41:02;1.83;;;1.60;;
31754;SDS011;18325;52.018;4.726;2023-07-31T14:43:33;1.55;;;1.35;;
31754;SDS011;18325;52.018;4.726;2023-07-31T14:46:06;2.80;;;1.65;;
31754;SDS011;18325;52.018;4.726;2023-07-31T14:48:45;2.42;;;1.70;;
31754;SDS011;18325;52.018;4.726;2023-07-31T14:51:31;2.35;;;1.85;;
31754;SDS011;18325;52.018;4.726;2023-07-31T14:53:58;2.40;;;1.70;;
31754;SDS011;18325;52.018;4.726;2023-07-31T14:56:37;1.80;;;1.25;;
31754;SDS011;18325;52.018;4.726;2023-07-31T14:59:08;2.67;;;1.25;;
31754;SDS011;18325;52.018;4.726;2023-07-31T15:01:49;1.52;;;1.20;;
31754;SDS011;18325;52.018;4.726;2023-07-31T15:04:30;2.60;;;1.00;;
31754;SDS011;18325;52.018;4.726;2023-07-31T15:07:23;1.90;;;1.35;;
31754;SDS011;18325;52.018;4.726;2023-07-31T15:09:57;2.33;;;1.63;;
31754;SDS011;18325;52.018;4.726;2023-07-31T15:12:36;2.28;;;1.45;;
31754;SDS011;18325;52.018;4.726;2023-07-31T15:15:09;2.97;;;1.55;;
31754;SDS011;18325;52.018;4.726;2023-07-31T15:17:35;3.33;;;1.60;;
31754;SDS011;18325;52.018;4.726;2023-07-31T15:20:02;5.25;;;2.25;;
31754;SDS011;18325;52.018;4.726;2023-07-31T15:22:32;4.38;;;1.88;;
31754;SDS011;18325;52.018;4.726;2023-07-31T15:25:10;1.90;;;1.52;;
31754;SDS011;18325;52.018;4.726;2023-07-31T15:27:37;3.05;;;1.63;;
31754;SDS011;18325;52.018;4.726;2023-07-31T15:30:04;2.00;;;1.27;;
31754;SDS011;18325;52.018;4.726;2023-07-31T15:32:31;1.05;;;0.95;;
31754;SDS011;18325;52.018;4.726;2023-07-31T15:34:58;1.75;;;0.95;;
31754;SDS011;18325;52.018;4.726;2023-07-31T15:37:25;1.25;;;1.02;;
31754;SDS011;18325;52.018;4.726;2023-07-31T15:39:53;1.40;;;1.20;;
31754;SDS011;18325;52.018;4.726;2023-07-31T15:42:31;1.20;;;1.05;;
31754;SDS011;18325;52.018;4.726;2023-07-31T15:45:03;1.27;;;1.08;;
31754;SDS011;18325;52.018;4.726;2023-07-31T15:47:55;2.28;;;1.30;;
31754;SDS011;18325;52.018;4.726;2023-07-31T15:53:15;1.30;;;1.20;;
31754;SDS011;18325;52.018;4.726;2023-07-31T15:59:11;1.88;;;1.50;;
31754;SDS011;18325;52.018;4.726;2023-07-31T16:01:37;1.50;;;1.38;;
31754;SDS011;18325;52.018;4.726;2023-07-31T16:07:26;0.90;;;0.90;;
31754;SDS011;18325;52.018;4.726;2023-07-31T16:09:52;1.92;;;0.93;;
31754;SDS011;18325;52.018;4.726;2023-07-31T16:12:29;1.98;;;1.10;;
31754;SDS011;18325;52.018;4.726;2023-07-31T16:15:01;1.42;;;1.25;;
31754;SDS011;18325;52.018;4.726;2023-07-31T16:17:29;1.15;;;1.02;;
31754;SDS011;18325;52.018;4.726;2023-07-31T16:19:56;1.40;;;0.93;;
31754;SDS011;18325;52.018;4.726;2023-07-31T16:22:22;1.88;;;1.20;;
31754;SDS011;18325;52.018;4.726;2023-07-31T16:24:49;4.80;;;1.05;;
31754;SDS011;18325;52.018;4.726;2023-07-31T16:27:16;2.25;;;0.80;;
31754;SDS011;18325;52.018;4.726;2023-07-31T16:29:44;0.93;;;0.80;;
31754;SDS011;18325;52.018;4.726;2023-07-31T16:32:12;1.60;;;0.88;;
31754;SDS011;18325;52.018;4.726;2023-07-31T16:37:40;1.92;;;1.33;;
31754;SDS011;18325;52.018;4.726;2023-07-31T16:40:10;0.82;;;0.75;;
31754;SDS011;18325;52.018;4.726;2023-07-31T16:42:40;0.98;;;0.80;;
31754;SDS011;18325;52.018;4.726;2023-07-31T16:45:08;1.55;;;1.00;;
31754;SDS011;18325;52.018;4.726;2023-07-31T16:48:00;1.05;;;0.80;;
31754;SDS011;18325;52.018;4.726;2023-07-31T16:50:29;1.15;;;1.05;;
31754;SDS011;18325;52.018;4.726;2023-07-31T16:52:55;1.35;;;0.88;;